createdAt,value
2019-04-29T00:00:35.896Z,88.70
2019-04-29T00:03:04.684Z,88.70
2019-04-29T00:05:33.393Z,88.70
2019-04-29T00:08:01.997Z,88.90
2019-04-29T00:10:31.277Z,88.80
2019-04-29T00:13:00.549Z,89.30
2019-04-29T00:15:40.048Z,89.30
2019-04-29T00:18:10.371Z,89.60
2019-04-29T00:20:43.089Z,89.30
2019-04-29T00:23:11.705Z,88.90
2019-04-29T00:25:40.573Z,88.90
2019-04-29T00:28:09.274Z,89.00
2019-04-29T00:30:37.879Z,88.70
2019-04-29T00:33:06.587Z,88.80
2019-04-29T00:35:35.455Z,89.20
2019-04-29T00:38:11.202Z,88.50
2019-04-29T00:40:41.454Z,88.40
2019-04-29T00:43:17.447Z,88.40
2019-04-29T00:45:46.128Z,88.40
2019-04-29T00:48:14.819Z,89.20
2019-04-29T00:50:43.359Z,89.80
2019-04-29T00:53:11.914Z,88.90
2019-04-29T00:55:40.449Z,88.90
2019-04-29T00:58:09.150Z,88.30
2019-04-29T01:00:40.499Z,88.70
2019-04-29T01:03:09.391Z,89.70
2019-04-29T01:05:38.285Z,89.20
2019-04-29T01:08:06.914Z,89.60
2019-04-29T01:10:36.868Z,89.50
2019-04-29T01:15:33.862Z,89.60
2019-04-29T01:20:30.765Z,89.90
2019-04-29T01:22:59.401Z,89.70
2019-04-29T01:25:28.164Z,89.80
2019-04-29T01:27:58.454Z,90.00
2019-04-29T01:30:58.663Z,89.80
2019-04-29T01:33:27.634Z,89.60
2019-04-29T01:36:01.256Z,89.60
2019-04-29T01:38:29.878Z,90.00
2019-04-29T01:41:00.055Z,89.70
2019-04-29T01:43:46.974Z,90.00
2019-04-29T01:46:15.514Z,89.20
2019-04-29T01:48:44.077Z,89.60
2019-04-29T01:51:12.618Z,89.60
2019-04-29T01:53:41.174Z,89.60
2019-04-29T01:56:09.856Z,89.40
2019-04-29T01:58:38.489Z,89.50
2019-04-29T02:01:07.089Z,89.50
2019-04-29T02:03:35.747Z,89.60
2019-04-29T02:06:04.495Z,89.30
2019-04-29T02:08:32.979Z,89.30
2019-04-29T02:11:01.688Z,89.40
2019-04-29T02:13:30.355Z,89.70
2019-04-29T02:15:58.975Z,89.70
2019-04-29T02:18:27.522Z,90.00
2019-04-29T02:20:56.071Z,89.50
2019-04-29T02:23:26.252Z,89.50
2019-04-29T02:25:54.949Z,89.30
2019-04-29T02:28:23.487Z,89.20
2019-04-29T02:30:52.689Z,89.00
2019-04-29T02:33:21.357Z,89.10
2019-04-29T02:35:50.059Z,89.20
2019-04-29T02:38:36.675Z,89.40
2019-04-29T02:41:18.563Z,89.40
2019-04-29T02:43:51.249Z,89.20
2019-04-29T02:46:19.879Z,89.70
2019-04-29T02:48:48.418Z,89.60
2019-04-29T02:51:18.760Z,89.70
2019-04-29T02:53:47.295Z,89.60
2019-04-29T02:56:15.953Z,89.60
2019-04-29T02:58:46.267Z,89.90
2019-04-29T03:01:25.197Z,89.80
2019-04-29T03:03:58.236Z,90.00
2019-04-29T03:06:26.842Z,90.00
2019-04-29T03:08:55.559Z,89.90
2019-04-29T03:11:24.165Z,90.00
2019-04-29T03:13:52.789Z,90.10
2019-04-29T03:16:21.575Z,90.10
2019-04-29T03:18:57.838Z,90.10
2019-04-29T03:21:37.923Z,90.20
2019-04-29T03:24:06.561Z,90.10
2019-04-29T03:26:35.095Z,90.30
2019-04-29T03:29:05.522Z,90.10
2019-04-29T03:31:39.195Z,90.10
2019-04-29T03:34:04.433Z,90.10
2019-04-29T03:39:01.290Z,90.10
2019-04-29T03:41:29.915Z,90.90
2019-04-29T03:43:58.538Z,90.20
2019-04-29T03:46:27.216Z,90.20
2019-04-29T03:48:55.801Z,90.20
2019-04-29T03:58:49.203Z,90.40
2019-04-29T04:01:19.418Z,90.50
2019-04-29T04:03:49.600Z,90.90
2019-04-29T04:06:34.974Z,90.60
2019-04-29T04:09:08.773Z,90.70
2019-04-29T04:11:37.315Z,90.80
2019-04-29T04:14:05.917Z,90.60
2019-04-29T04:16:52.146Z,90.80
2019-04-29T04:19:21.810Z,90.70
2019-04-29T04:21:50.376Z,90.60
2019-04-29T04:24:18.896Z,90.50
2019-04-29T04:26:47.536Z,90.90
2019-04-29T04:29:16.151Z,91.10
2019-04-29T04:31:44.889Z,91.10
2019-04-29T04:34:13.416Z,91.00
2019-04-29T04:36:42.123Z,90.70
2019-04-29T04:39:10.795Z,91.00
2019-04-29T04:41:39.416Z,90.70
2019-04-29T04:46:36.311Z,90.60
2019-04-29T04:49:04.927Z,90.70
2019-04-29T04:51:33.472Z,90.50
2019-04-29T04:54:02.081Z,90.80
2019-04-29T04:56:30.703Z,90.50
2019-04-29T04:58:59.375Z,90.20
2019-04-29T05:01:28.003Z,90.10
2019-04-29T05:03:56.630Z,90.50
2019-04-29T05:06:25.244Z,90.00
2019-04-29T05:08:53.923Z,89.80
2019-04-29T05:11:31.541Z,90.00
2019-04-29T05:14:00.268Z,89.90
2019-04-29T05:16:28.895Z,89.90
2019-04-29T05:18:57.821Z,89.60
2019-04-29T05:21:28.460Z,89.20
2019-04-29T05:23:57.117Z,88.70
2019-04-29T05:26:25.727Z,88.70
2019-04-29T05:28:54.270Z,88.70
2019-04-29T05:31:22.955Z,88.40
2019-04-29T05:33:51.601Z,87.40
2019-04-29T05:36:24.319Z,87.60
2019-04-29T05:38:54.535Z,87.70
2019-04-29T05:41:23.669Z,87.60
2019-04-29T05:43:53.962Z,89.10
2019-04-29T05:46:24.248Z,87.90
2019-04-29T05:48:53.841Z,87.70
2019-04-29T05:51:36.153Z,88.20
2019-04-29T05:54:15.330Z,89.00
2019-04-29T05:56:44.018Z,88.20
2019-04-29T05:59:13.901Z,88.70
2019-04-29T06:01:46.584Z,89.10
2019-04-29T06:04:16.196Z,89.50
2019-04-29T06:06:43.299Z,89.70
2019-04-29T06:09:16.959Z,89.80
2019-04-29T06:11:42.339Z,90.10
2019-04-29T06:14:10.958Z,90.20
2019-04-29T06:16:39.554Z,90.10
2019-04-29T06:19:13.686Z,90.10
2019-04-29T06:21:42.370Z,89.90
2019-04-29T06:24:10.979Z,90.00
2019-04-29T06:26:39.637Z,89.10
2019-04-29T06:29:08.358Z,89.30
2019-04-29T06:31:36.867Z,89.40
2019-04-29T06:34:06.534Z,89.50
2019-04-29T06:36:35.346Z,89.30
2019-04-29T06:39:06.587Z,89.50
2019-04-29T06:41:35.295Z,89.20
2019-04-29T06:44:06.228Z,89.40
2019-04-29T06:46:34.491Z,89.30
2019-04-29T06:49:10.017Z,90.00
2019-04-29T06:51:33.387Z,90.50
2019-04-29T06:54:02.062Z,89.80
2019-04-29T06:56:30.795Z,90.10
2019-04-29T06:58:59.495Z,90.10
2019-04-29T07:01:28.096Z,90.00
2019-04-29T07:03:59.871Z,90.40
2019-04-29T07:06:26.813Z,90.30
2019-04-29T07:08:55.553Z,90.80
2019-04-29T07:11:24.181Z,90.80
2019-04-29T07:13:53.412Z,91.10
2019-04-29T07:16:27.320Z,91.10
2019-04-29T07:18:53.794Z,90.90
2019-04-29T07:21:22.523Z,90.90
2019-04-29T07:23:51.149Z,91.10
2019-04-29T07:26:19.708Z,90.90
2019-04-29T07:28:48.657Z,91.20
2019-04-29T07:31:18.663Z,90.80
2019-04-29T07:33:47.349Z,91.20
2019-04-29T07:36:18.703Z,90.60
2019-04-29T07:38:46.575Z,90.80
2019-04-29T07:41:19.175Z,90.60
2019-04-29T07:43:46.624Z,90.80
2019-04-29T07:46:16.897Z,91.00
2019-04-29T07:48:45.571Z,90.60
2019-04-29T07:51:14.180Z,91.00
2019-04-29T07:53:45.581Z,90.70
2019-04-29T07:56:12.990Z,90.30
2019-04-29T07:58:41.550Z,90.00
2019-04-29T08:01:10.144Z,89.60
2019-04-29T08:03:38.702Z,90.00
2019-04-29T08:06:07.301Z,90.40
2019-04-29T08:08:36.306Z,90.40
2019-04-29T08:11:04.998Z,90.30
2019-04-29T08:13:33.854Z,90.00
2019-04-29T08:16:02.454Z,89.90
2019-04-29T08:18:31.128Z,89.60
2019-04-29T08:20:59.756Z,89.20
2019-04-29T08:23:28.392Z,88.50
2019-04-29T08:26:02.108Z,88.50
2019-04-29T08:28:27.251Z,88.30
2019-04-29T08:30:55.970Z,87.80
2019-04-29T08:33:24.628Z,89.40
2019-04-29T08:35:53.271Z,88.70
2019-04-29T08:38:21.965Z,89.50
2019-04-29T08:40:51.705Z,90.00
2019-04-29T08:43:28.063Z,89.10
2019-04-29T08:46:00.751Z,90.00
2019-04-29T08:48:29.423Z,88.80
2019-04-29T08:50:58.051Z,87.90
2019-04-29T08:53:26.597Z,88.00
2019-04-29T08:55:55.372Z,87.00
2019-04-29T08:58:23.915Z,86.50
2019-04-29T09:00:55.680Z,85.30
2019-04-29T09:03:23.675Z,85.60
2019-04-29T09:06:05.273Z,85.30
2019-04-29T09:08:23.384Z,84.90
2019-04-29T09:10:52.068Z,87.00
2019-04-29T09:13:20.693Z,86.90
2019-04-29T09:15:49.325Z,86.80
2019-04-29T09:18:17.935Z,85.40
2019-04-29T09:20:46.567Z,83.00
2019-04-29T09:23:25.784Z,82.90
2019-04-29T09:26:14.422Z,81.40
2019-04-29T09:28:43.031Z,80.90
2019-04-29T09:31:11.598Z,81.80
2019-04-29T09:33:44.093Z,80.40
2019-04-29T09:36:13.821Z,81.40
2019-04-29T09:38:40.910Z,81.50
2019-04-29T09:41:30.582Z,82.00
2019-04-29T09:44:03.599Z,83.30
2019-04-29T09:46:34.525Z,82.90
2019-04-29T09:49:01.640Z,83.70
2019-04-29T09:51:30.292Z,84.60
2019-04-29T09:53:59.150Z,86.60
2019-04-29T09:56:27.778Z,88.50
2019-04-29T09:59:15.832Z,88.30
2019-04-29T10:01:46.146Z,87.80
2019-04-29T10:04:16.490Z,88.50
2019-04-29T10:06:46.673Z,88.30
2019-04-29T10:09:15.349Z,88.10
2019-04-29T10:11:44.059Z,88.00
2019-04-29T10:14:12.685Z,87.40
2019-04-29T10:16:42.995Z,87.20
2019-04-29T10:19:25.516Z,86.00
2019-04-29T10:21:54.189Z,86.70
2019-04-29T10:24:22.756Z,84.30
2019-04-29T10:26:51.429Z,84.50
2019-04-29T10:29:21.806Z,83.60
2019-04-29T10:31:50.478Z,82.40
2019-04-29T10:34:20.452Z,82.90
2019-04-29T10:36:52.239Z,82.70
2019-04-29T10:39:37.321Z,83.10
2019-04-29T10:42:08.036Z,84.90
2019-04-29T10:44:38.427Z,87.30
2019-04-29T10:47:17.698Z,89.10
2019-04-29T10:49:49.665Z,90.00
2019-04-29T10:52:18.409Z,89.40
2019-04-29T10:54:51.576Z,88.60
2019-04-29T10:57:19.512Z,90.00
2019-04-29T10:59:50.358Z,90.10
2019-04-29T11:02:26.739Z,90.00
2019-04-29T11:05:15.176Z,89.30
2019-04-29T11:07:45.745Z,88.80
2019-04-29T11:10:25.274Z,88.70
2019-04-29T11:12:50.154Z,86.40
2019-04-29T11:15:20.492Z,85.70
2019-04-29T11:17:58.488Z,82.30
2019-04-29T11:20:21.630Z,82.70
2019-04-29T11:22:55.092Z,81.40
2019-04-29T11:25:51.114Z,81.60
2019-04-29T11:28:17.722Z,81.80
2019-04-29T11:30:49.443Z,82.70
2019-04-29T11:33:35.574Z,83.30
2019-04-29T11:36:09.828Z,84.20
2019-04-29T11:38:40.038Z,86.00
2019-04-29T11:41:12.243Z,86.70
2019-04-29T11:43:39.667Z,87.50
2019-04-29T11:46:10.011Z,86.10
2019-04-29T11:48:38.662Z,85.10
2019-04-29T11:53:52.869Z,83.00
2019-04-29T11:56:21.593Z,84.30
2019-04-29T11:59:06.687Z,84.10
2019-04-29T12:01:46.740Z,82.60
2019-04-29T12:04:12.022Z,81.20
2019-04-29T12:06:40.643Z,83.10
2019-04-29T12:09:09.327Z,83.10
2019-04-29T12:11:38.442Z,83.40
2019-04-29T12:14:08.723Z,82.40
2019-04-29T12:16:41.778Z,82.10
2019-04-29T12:19:27.280Z,81.70
2019-04-29T12:21:55.972Z,82.00
2019-04-29T12:24:24.514Z,81.30
2019-04-29T12:26:53.182Z,79.20
2019-04-29T12:29:21.903Z,77.70
2019-04-29T12:32:08.739Z,75.90
2019-04-29T12:34:57.195Z,75.30
2019-04-29T12:37:38.988Z,73.80
2019-04-29T12:40:23.249Z,73.80
2019-04-29T12:42:56.164Z,73.50
2019-04-29T12:48:29.231Z,76.30
2019-04-29T12:50:57.920Z,76.80
2019-04-29T12:53:26.896Z,80.10
2019-04-29T12:55:56.742Z,80.20
2019-04-29T12:58:25.940Z,81.00
2019-04-29T13:01:01.269Z,81.40
2019-04-29T13:03:41.129Z,80.70
2019-04-29T13:06:11.477Z,82.10
2019-04-29T13:08:50.897Z,84.90
2019-04-29T13:11:20.965Z,86.60
2019-04-29T13:13:51.301Z,88.70
2019-04-29T13:16:22.141Z,88.00
2019-04-29T13:18:53.746Z,89.80
2019-04-29T13:21:22.893Z,91.00
2019-04-29T13:23:59.430Z,90.80
2019-04-29T13:26:28.438Z,91.20
2019-04-29T13:29:00.160Z,89.90
2019-04-29T13:31:37.475Z,90.20
2019-04-29T13:33:54.278Z,88.60
2019-04-29T13:36:25.889Z,88.40
2019-04-29T13:38:53.381Z,86.20
2019-04-29T13:41:24.348Z,88.50
2019-04-29T13:43:53.980Z,90.20
2019-04-29T13:46:27.496Z,90.80
2019-04-29T13:49:12.567Z,90.60
2019-04-29T13:51:41.230Z,90.50
2019-04-29T13:54:10.370Z,91.00
2019-04-29T13:56:54.773Z,91.40
2019-04-29T13:59:12.550Z,92.10
2019-04-29T14:01:58.195Z,92.00
2019-04-29T14:04:24.576Z,92.30
2019-04-29T14:06:57.267Z,92.10
2019-04-29T14:09:21.074Z,91.60
2019-04-29T14:12:01.027Z,91.00
2019-04-29T14:14:22.772Z,90.90
2019-04-29T14:16:50.474Z,90.90
2019-04-29T14:19:39.513Z,90.40
2019-04-29T14:21:49.424Z,90.00
2019-04-29T14:24:18.044Z,89.50
2019-04-29T14:26:47.914Z,88.30
2019-04-29T14:29:16.547Z,86.80
2019-04-29T14:31:46.926Z,85.90
2019-04-29T14:34:20.264Z,86.60
2019-04-29T14:36:47.261Z,86.70
2019-04-29T14:39:18.927Z,87.20
2019-04-29T14:41:50.932Z,87.20
2019-04-29T14:44:31.622Z,86.50
2019-04-29T14:47:01.906Z,86.30
2019-04-29T14:49:35.359Z,87.90
2019-04-29T14:52:03.466Z,88.90
2019-04-29T14:54:32.107Z,86.80
2019-04-29T14:57:00.831Z,87.20
2019-04-29T14:59:29.552Z,88.70
2019-04-29T15:02:06.088Z,88.30
2019-04-29T15:04:36.501Z,88.20
2019-04-29T15:07:05.546Z,87.00
2019-04-29T15:09:46.033Z,88.60
2019-04-29T15:12:09.796Z,88.70
2019-04-29T15:14:48.637Z,89.10
2019-04-29T15:17:34.470Z,89.60
2019-04-29T15:20:11.482Z,90.10
2019-04-29T15:22:41.307Z,90.90
2019-04-29T15:25:16.669Z,90.90
2019-04-29T15:27:43.363Z,91.40
2019-04-29T15:30:12.302Z,91.30
2019-04-29T15:32:40.923Z,91.60
2019-04-29T15:35:09.591Z,92.40
2019-04-29T15:37:38.211Z,92.10
2019-04-29T15:40:08.198Z,91.60
2019-04-29T15:42:40.961Z,91.50
2019-04-29T15:45:07.596Z,91.60
2019-04-29T15:47:36.258Z,91.10
2019-04-29T15:50:18.204Z,91.20
2019-04-29T15:52:36.837Z,91.60
2019-04-29T15:55:06.147Z,91.50
2019-04-29T15:57:34.788Z,91.30
2019-04-29T16:00:20.573Z,91.40
2019-04-29T16:02:40.998Z,91.70
2019-04-29T16:05:14.848Z,91.80
2019-04-29T16:07:46.702Z,91.90
2019-04-29T16:10:20.611Z,92.10
2019-04-29T16:12:50.997Z,92.30
2019-04-29T16:15:18.068Z,92.40
2019-04-29T16:17:46.596Z,92.50
2019-04-29T16:20:15.312Z,92.80
2019-04-29T16:22:43.935Z,93.20
2019-04-29T16:25:12.934Z,92.90
2019-04-29T16:27:51.497Z,92.90
2019-04-29T16:30:18.603Z,93.70
2019-04-29T16:32:43.167Z,93.80
2019-04-29T16:35:12.178Z,93.70
2019-04-29T16:37:40.839Z,93.50
2019-04-29T16:40:09.750Z,94.00
2019-04-29T16:42:40.061Z,93.30
2019-04-29T16:45:12.343Z,93.60
2019-04-29T16:47:40.443Z,94.50
2019-04-29T16:50:09.135Z,94.40
2019-04-29T16:52:44.145Z,94.30
2019-04-29T16:55:08.462Z,94.20
2019-04-29T16:57:37.093Z,94.30
2019-04-29T17:00:13.933Z,94.80
2019-04-29T17:02:39.073Z,94.90
2019-04-29T17:05:09.564Z,95.10
2019-04-29T17:07:38.255Z,95.30
2019-04-29T17:10:20.429Z,95.20
2019-04-29T17:12:50.319Z,95.20
2019-04-29T17:15:25.163Z,95.30
2019-04-29T17:17:49.378Z,95.40
2019-04-29T17:20:18.537Z,95.60
2019-04-29T17:22:47.178Z,95.30
2019-04-29T17:25:15.859Z,95.50
2019-04-29T17:28:02.573Z,95.60
2019-04-29T17:30:49.288Z,94.90
2019-04-29T17:33:29.991Z,95.30
2019-04-29T17:36:01.681Z,95.40
2019-04-29T17:38:32.076Z,95.70
2019-04-29T17:41:00.842Z,96.00
2019-04-29T17:43:46.606Z,95.80
2019-04-29T17:46:17.015Z,96.10
2019-04-29T17:49:01.989Z,96.30
2019-04-29T17:51:31.696Z,96.20
2019-04-29T17:54:02.124Z,96.00
2019-04-29T17:56:32.679Z,96.10
2019-04-29T17:59:06.297Z,96.30
2019-04-29T18:01:52.825Z,96.40
2019-04-29T18:04:33.743Z,96.40
2019-04-29T18:07:10.281Z,96.30
2019-04-29T18:09:42.542Z,96.60
2019-04-29T18:12:15.702Z,96.00
2019-04-29T18:14:45.452Z,96.30
2019-04-29T18:17:24.184Z,96.50
2019-04-29T18:19:47.357Z,96.40
2019-04-29T18:22:34.938Z,96.60
2019-04-29T18:25:14.543Z,96.40
2019-04-29T18:27:45.138Z,96.60
2019-04-29T18:30:19.432Z,97.20
2019-04-29T18:32:46.755Z,97.20
2019-04-29T18:35:17.073Z,97.10
2019-04-29T18:37:45.847Z,97.50
2019-04-29T18:40:16.059Z,97.50
2019-04-29T18:42:48.379Z,97.90
2019-04-29T18:45:15.713Z,97.60
2019-04-29T18:47:44.505Z,97.40
2019-04-29T18:50:13.196Z,97.40
2019-04-29T18:52:41.975Z,97.30
2019-04-29T18:55:10.651Z,97.30
2019-04-29T18:57:39.304Z,97.20
2019-04-29T19:00:12.393Z,97.30
2019-04-29T19:02:45.227Z,97.00
2019-04-29T19:05:10.758Z,97.00
2019-04-29T19:07:39.789Z,96.50
2019-04-29T19:10:14.310Z,96.40
2019-04-29T19:12:39.413Z,96.80
2019-04-29T19:15:11.823Z,97.00
2019-04-29T19:17:40.109Z,97.30
2019-04-29T19:20:13.028Z,97.00
2019-04-29T19:22:39.919Z,97.00
2019-04-29T19:25:11.729Z,97.10
2019-04-29T19:27:40.041Z,97.10
2019-04-29T19:30:16.055Z,97.10
2019-04-29T19:32:40.530Z,96.90
2019-04-29T19:35:11.226Z,96.40
2019-04-29T19:37:40.124Z,96.60
2019-04-29T19:40:09.618Z,96.50
2019-04-29T19:42:39.690Z,96.50
2019-04-29T19:45:13.391Z,96.80
2019-04-29T19:47:38.925Z,96.80
2019-04-29T19:50:10.481Z,96.70
2019-04-29T19:52:39.087Z,96.90
2019-04-29T19:55:07.787Z,97.00
2019-04-29T19:57:42.200Z,97.20
2019-04-29T20:00:07.613Z,97.00
2019-04-29T20:02:45.254Z,96.60
2019-04-29T20:05:10.692Z,96.60
2019-04-29T20:07:42.245Z,96.70
2019-04-29T20:10:11.318Z,96.60
2019-04-29T20:12:40.519Z,96.40
2019-04-29T20:15:10.236Z,96.60
2019-04-29T20:17:57.791Z,96.70
2019-04-29T20:20:43.498Z,96.30
2019-04-29T20:23:12.333Z,96.70
2019-04-29T20:25:41.059Z,96.70
2019-04-29T20:28:16.951Z,96.60
2019-04-29T20:30:40.094Z,96.80
2019-04-29T20:33:12.332Z,96.70
2019-04-29T20:35:40.423Z,96.90
2019-04-29T20:38:09.533Z,96.80
2019-04-29T20:40:42.818Z,96.90
2019-04-29T20:43:08.820Z,97.40
2019-04-29T20:45:37.647Z,97.20
2019-04-29T20:48:06.580Z,97.40
2019-04-29T20:50:35.632Z,97.40
2019-04-29T20:53:11.862Z,97.40
2019-04-29T20:55:40.851Z,97.40
2019-04-29T20:58:09.563Z,97.30
2019-04-29T21:00:39.466Z,97.20
2019-04-29T21:03:09.301Z,97.40
2019-04-29T21:05:47.400Z,97.80
2019-04-29T21:08:14.687Z,97.70
2019-04-29T21:10:43.062Z,97.40
2019-04-29T21:13:16.045Z,97.60
2019-04-29T21:15:53.782Z,97.50
2019-04-29T21:18:23.134Z,97.50
2019-04-29T21:20:51.725Z,97.60
2019-04-29T21:23:20.349Z,97.60
2019-04-29T21:25:48.948Z,97.60
2019-04-29T21:28:17.629Z,97.70
2019-04-29T21:30:46.382Z,97.70
2019-04-29T21:33:20.986Z,97.40
2019-04-29T21:35:53.816Z,97.50
2019-04-29T21:38:22.273Z,97.40
2019-04-29T21:40:59.457Z,97.70
2019-04-29T21:43:32.706Z,97.40
2019-04-29T21:46:01.238Z,97.40
2019-04-29T21:48:33.595Z,97.40
2019-04-29T21:51:00.114Z,97.20
2019-04-29T21:53:31.694Z,97.60
2019-04-29T21:55:59.719Z,97.50
2019-04-29T21:58:33.042Z,97.50
2019-04-29T22:01:00.144Z,97.50
2019-04-29T22:03:28.893Z,97.40
2019-04-29T22:06:00.177Z,97.40
2019-04-29T22:08:30.022Z,97.70
2019-04-29T22:11:04.677Z,97.80
2019-04-29T22:13:30.674Z,97.70
2019-04-29T22:15:59.178Z,97.70
2019-04-29T22:18:27.861Z,97.80
2019-04-29T22:20:56.546Z,97.70
2019-04-29T22:23:25.379Z,97.70
2019-04-29T22:25:54.767Z,97.70
2019-04-29T22:28:24.864Z,97.50
2019-04-29T22:30:54.765Z,97.80
2019-04-29T22:33:25.220Z,97.60
2019-04-29T22:35:55.433Z,97.80
2019-04-29T22:38:24.969Z,97.80
2019-04-29T22:40:55.176Z,97.70
2019-04-29T22:43:30.688Z,97.70
2019-04-29T22:45:59.516Z,98.50
2019-04-29T22:48:28.167Z,98.00
2019-04-29T22:50:56.813Z,98.10
2019-04-29T22:53:25.415Z,98.00
2019-04-29T22:55:54.030Z,98.00
2019-04-29T22:58:22.575Z,98.10
2019-04-29T23:00:52.667Z,98.30
2019-04-29T23:03:21.346Z,98.80
2019-04-29T23:05:49.927Z,98.20
2019-04-29T23:08:18.469Z,98.40
2019-04-29T23:10:47.048Z,98.30
2019-04-29T23:13:15.733Z,97.80
2019-04-29T23:15:45.572Z,98.50
2019-04-29T23:18:24.281Z,98.50
2019-04-29T23:20:52.368Z,98.10
2019-04-29T23:23:33.625Z,98.30
2019-04-29T23:25:59.858Z,98.40
2019-04-29T23:28:29.297Z,98.20
2019-04-29T23:30:57.903Z,98.50
2019-04-29T23:33:26.583Z,98.50
2019-04-29T23:35:56.050Z,98.30
2019-04-29T23:38:25.597Z,98.20
2019-04-29T23:40:56.235Z,98.20
2019-04-29T23:43:28.282Z,98.10
2019-04-29T23:45:56.964Z,98.30
2019-04-29T23:48:38.069Z,98.30
2019-04-29T23:50:58.168Z,98.50
2019-04-29T23:53:26.621Z,98.50
2019-04-29T23:55:55.649Z,98.70
2019-04-29T23:58:26.078Z,98.50
